sensor_id;sensor_type;location;lat;lon;timestamp;temperature;humidity
19966;DHT22;10144;50.874;4.762;2023-06-22T00:02:24;21.80;99.90
19966;DHT22;10144;50.874;4.762;2023-06-22T00:04:50;21.90;99.90
19966;DHT22;10144;50.874;4.762;2023-06-22T00:07:18;22.00;99.90
19966;DHT22;10144;50.874;4.762;2023-06-22T00:09:46;22.00;99.90
19966;DHT22;10144;50.874;4.762;2023-06-22T00:12:12;21.80;99.90
19966;DHT22;10144;50.874;4.762;2023-06-22T00:14:39;21.80;99.90
19966;DHT22;10144;50.874;4.762;2023-06-22T00:17:06;21.90;99.90
19966;DHT22;10144;50.874;4.762;2023-06-22T00:19:34;22.00;99.90
19966;DHT22;10144;50.874;4.762;2023-06-22T00:22:01;21.80;99.90
19966;DHT22;10144;50.874;4.762;2023-06-22T00:24:28;21.80;99.90
19966;DHT22;10144;50.874;4.762;2023-06-22T00:26:55;21.80;99.90
19966;DHT22;10144;50.874;4.762;2023-06-22T00:29:22;21.60;99.90
19966;DHT22;10144;50.874;4.762;2023-06-22T00:31:48;21.40;99.90
19966;DHT22;10144;50.874;4.762;2023-06-22T00:34:14;21.40;99.90
19966;DHT22;10144;50.874;4.762;2023-06-22T00:36:41;21.40;99.90
19966;DHT22;10144;50.874;4.762;2023-06-22T00:39:07;21.30;99.90
19966;DHT22;10144;50.874;4.762;2023-06-22T00:41:35;21.30;99.90
19966;DHT22;10144;50.874;4.762;2023-06-22T00:44:02;21.30;99.90
19966;DHT22;10144;50.874;4.762;2023-06-22T00:46:31;21.40;99.90
19966;DHT22;10144;50.874;4.762;2023-06-22T00:48:56;21.40;99.90
19966;DHT22;10144;50.874;4.762;2023-06-22T00:51:23;21.30;99.90
19966;DHT22;10144;50.874;4.762;2023-06-22T00:53:51;21.30;99.90
19966;DHT22;10144;50.874;4.762;2023-06-22T00:56:18;21.30;99.90
19966;DHT22;10144;50.874;4.762;2023-06-22T00:58:46;21.40;99.90
19966;DHT22;10144;50.874;4.762;2023-06-22T01:01:13;21.30;99.90
19966;DHT22;10144;50.874;4.762;2023-06-22T01:03:40;21.30;99.90
19966;DHT22;10144;50.874;4.762;2023-06-22T01:06:21;21.30;99.90
19966;DHT22;10144;50.874;4.762;2023-06-22T01:08:57;21.40;99.90
19966;DHT22;10144;50.874;4.762;2023-06-22T01:11:39;21.50;99.90
19966;DHT22;10144;50.874;4.762;2023-06-22T01:14:15;21.40;99.90
19966;DHT22;10144;50.874;4.762;2023-06-22T01:16:44;21.60;99.90
19966;DHT22;10144;50.874;4.762;2023-06-22T01:19:35;21.60;99.90
19966;DHT22;10144;50.874;4.762;2023-06-22T01:22:04;21.70;99.90
19966;DHT22;10144;50.874;4.762;2023-06-22T01:25:07;21.80;99.90
19966;DHT22;10144;50.874;4.762;2023-06-22T01:27:56;21.80;99.90
19966;DHT22;10144;50.874;4.762;2023-06-22T01:30:18;21.60;99.90
19966;DHT22;10144;50.874;4.762;2023-06-22T01:32:44;21.40;99.90
19966;DHT22;10144;50.874;4.762;2023-06-22T01:35:13;21.20;99.90
19966;DHT22;10144;50.874;4.762;2023-06-22T01:37:39;21.10;99.90
19966;DHT22;10144;50.874;4.762;2023-06-22T01:40:06;21.00;99.90
19966;DHT22;10144;50.874;4.762;2023-06-22T01:42:37;21.10;99.90
19966;DHT22;10144;50.874;4.762;2023-06-22T01:45:07;21.10;99.90
19966;DHT22;10144;50.874;4.762;2023-06-22T01:47:33;21.10;99.90
19966;DHT22;10144;50.874;4.762;2023-06-22T01:49:59;20.90;99.90
19966;DHT22;10144;50.874;4.762;2023-06-22T01:52:26;20.90;99.90
19966;DHT22;10144;50.874;4.762;2023-06-22T01:54:53;20.80;99.90
19966;DHT22;10144;50.874;4.762;2023-06-22T01:57:19;20.60;99.90
19966;DHT22;10144;50.874;4.762;2023-06-22T02:00:03;20.50;99.90
19966;DHT22;10144;50.874;4.762;2023-06-22T02:02:39;20.50;99.90
19966;DHT22;10144;50.874;4.762;2023-06-22T02:05:07;20.40;99.90
19966;DHT22;10144;50.874;4.762;2023-06-22T02:07:45;20.60;99.90
19966;DHT22;10144;50.874;4.762;2023-06-22T02:10:16;20.70;99.90
19966;DHT22;10144;50.874;4.762;2023-06-22T02:12:45;20.80;99.90
19966;DHT22;10144;50.874;4.762;2023-06-22T02:15:13;21.00;99.90
19966;DHT22;10144;50.874;4.762;2023-06-22T02:17:40;21.00;99.90
19966;DHT22;10144;50.874;4.762;2023-06-22T02:20:14;20.90;99.90
19966;DHT22;10144;50.874;4.762;2023-06-22T02:22:40;20.80;99.90
19966;DHT22;10144;50.874;4.762;2023-06-22T02:25:08;20.70;99.90
19966;DHT22;10144;50.874;4.762;2023-06-22T02:27:34;20.70;99.90
19966;DHT22;10144;50.874;4.762;2023-06-22T02:30:00;20.50;99.90
19966;DHT22;10144;50.874;4.762;2023-06-22T02:32:27;20.40;99.90
19966;DHT22;10144;50.874;4.762;2023-06-22T02:34:54;20.40;99.90
19966;DHT22;10144;50.874;4.762;2023-06-22T02:37:22;20.30;99.90
19966;DHT22;10144;50.874;4.762;2023-06-22T02:39:50;20.30;99.90
19966;DHT22;10144;50.874;4.762;2023-06-22T02:42:16;20.20;99.90
19966;DHT22;10144;50.874;4.762;2023-06-22T02:44:45;20.20;99.90
19966;DHT22;10144;50.874;4.762;2023-06-22T02:47:11;20.20;99.90
19966;DHT22;10144;50.874;4.762;2023-06-22T02:49:37;20.30;99.90
19966;DHT22;10144;50.874;4.762;2023-06-22T02:52:04;20.40;99.90
19966;DHT22;10144;50.874;4.762;2023-06-22T02:54:30;20.30;99.90
19966;DHT22;10144;50.874;4.762;2023-06-22T02:56:59;20.20;99.90
19966;DHT22;10144;50.874;4.762;2023-06-22T02:59:28;20.20;99.90
19966;DHT22;10144;50.874;4.762;2023-06-22T03:01:54;20.20;99.90
19966;DHT22;10144;50.874;4.762;2023-06-22T03:04:21;19.90;99.90
19966;DHT22;10144;50.874;4.762;2023-06-22T03:06:47;19.80;99.90
19966;DHT22;10144;50.874;4.762;2023-06-22T03:09:16;19.70;99.90
19966;DHT22;10144;50.874;4.762;2023-06-22T03:11:43;19.80;99.90
19966;DHT22;10144;50.874;4.762;2023-06-22T03:14:11;19.90;99.90
19966;DHT22;10144;50.874;4.762;2023-06-22T03:16:40;20.10;99.90
19966;DHT22;10144;50.874;4.762;2023-06-22T03:19:06;20.10;99.90
19966;DHT22;10144;50.874;4.762;2023-06-22T03:21:32;20.20;99.90
19966;DHT22;10144;50.874;4.762;2023-06-22T03:23:57;20.10;99.90
19966;DHT22;10144;50.874;4.762;2023-06-22T03:26:23;20.00;99.90
19966;DHT22;10144;50.874;4.762;2023-06-22T03:28:54;20.10;99.90
19966;DHT22;10144;50.874;4.762;2023-06-22T03:31:19;20.20;99.90
19966;DHT22;10144;50.874;4.762;2023-06-22T03:33:49;20.20;99.90
19966;DHT22;10144;50.874;4.762;2023-06-22T03:36:17;20.20;99.90
19966;DHT22;10144;50.874;4.762;2023-06-22T03:38:50;20.20;99.90
19966;DHT22;10144;50.874;4.762;2023-06-22T03:41:17;20.10;99.90
19966;DHT22;10144;50.874;4.762;2023-06-22T03:43:42;20.10;99.90
19966;DHT22;10144;50.874;4.762;2023-06-22T03:46:09;20.10;99.90
19966;DHT22;10144;50.874;4.762;2023-06-22T03:48:36;20.10;99.90
19966;DHT22;10144;50.874;4.762;2023-06-22T03:51:02;20.30;99.90
19966;DHT22;10144;50.874;4.762;2023-06-22T03:53:31;20.30;99.90
19966;DHT22;10144;50.874;4.762;2023-06-22T03:55:57;20.40;99.90
19966;DHT22;10144;50.874;4.762;2023-06-22T03:58:23;20.30;99.90
19966;DHT22;10144;50.874;4.762;2023-06-22T04:00:52;20.30;99.90
19966;DHT22;10144;50.874;4.762;2023-06-22T04:03:19;20.30;99.90
19966;DHT22;10144;50.874;4.762;2023-06-22T04:05:46;20.30;99.90
19966;DHT22;10144;50.874;4.762;2023-06-22T04:08:13;20.30;99.90
19966;DHT22;10144;50.874;4.762;2023-06-22T04:10:39;20.30;99.90
19966;DHT22;10144;50.874;4.762;2023-06-22T04:13:05;20.30;99.90
19966;DHT22;10144;50.874;4.762;2023-06-22T04:15:30;20.40;99.90
19966;DHT22;10144;50.874;4.762;2023-06-22T04:17:57;20.50;99.90
19966;DHT22;10144;50.874;4.762;2023-06-22T04:20:23;20.50;99.90
19966;DHT22;10144;50.874;4.762;2023-06-22T04:22:54;20.50;99.90
19966;DHT22;10144;50.874;4.762;2023-06-22T04:25:20;20.50;99.90
19966;DHT22;10144;50.874;4.762;2023-06-22T04:27:46;20.50;99.90
19966;DHT22;10144;50.874;4.762;2023-06-22T04:30:12;20.40;99.90
19966;DHT22;10144;50.874;4.762;2023-06-22T04:32:40;20.40;99.90
19966;DHT22;10144;50.874;4.762;2023-06-22T04:35:06;20.40;99.90
19966;DHT22;10144;50.874;4.762;2023-06-22T04:37:38;20.40;99.90
19966;DHT22;10144;50.874;4.762;2023-06-22T04:40:05;20.20;99.90
19966;DHT22;10144;50.874;4.762;2023-06-22T04:42:34;20.30;99.90
19966;DHT22;10144;50.874;4.762;2023-06-22T04:45:00;20.30;99.90
19966;DHT22;10144;50.874;4.762;2023-06-22T04:47:26;20.50;99.90
19966;DHT22;10144;50.874;4.762;2023-06-22T04:49:52;20.60;99.90
19966;DHT22;10144;50.874;4.762;2023-06-22T04:52:17;20.70;99.90
19966;DHT22;10144;50.874;4.762;2023-06-22T04:54:46;20.70;99.90
19966;DHT22;10144;50.874;4.762;2023-06-22T04:57:20;20.60;99.90
19966;DHT22;10144;50.874;4.762;2023-06-22T04:59:49;20.60;99.90
19966;DHT22;10144;50.874;4.762;2023-06-22T05:02:19;20.60;99.90
19966;DHT22;10144;50.874;4.762;2023-06-22T05:04:47;20.60;99.90
19966;DHT22;10144;50.874;4.762;2023-06-22T05:07:16;20.50;99.90
19966;DHT22;10144;50.874;4.762;2023-06-22T05:09:42;20.60;99.90
19966;DHT22;10144;50.874;4.762;2023-06-22T05:12:07;20.60;99.90
19966;DHT22;10144;50.874;4.762;2023-06-22T05:14:33;20.70;99.90
19966;DHT22;10144;50.874;4.762;2023-06-22T05:16:59;20.80;99.90
19966;DHT22;10144;50.874;4.762;2023-06-22T05:19:30;20.90;99.90
19966;DHT22;10144;50.874;4.762;2023-06-22T05:21:58;21.00;99.90
19966;DHT22;10144;50.874;4.762;2023-06-22T05:24:25;21.00;99.90
19966;DHT22;10144;50.874;4.762;2023-06-22T05:26:51;21.10;99.90
19966;DHT22;10144;50.874;4.762;2023-06-22T05:29:16;21.10;99.90
19966;DHT22;10144;50.874;4.762;2023-06-22T05:31:42;21.10;99.90
19966;DHT22;10144;50.874;4.762;2023-06-22T05:34:07;21.20;99.90
19966;DHT22;10144;50.874;4.762;2023-06-22T05:36:33;21.20;99.90
19966;DHT22;10144;50.874;4.762;2023-06-22T05:39:11;21.30;99.90
19966;DHT22;10144;50.874;4.762;2023-06-22T05:41:37;21.40;99.90
19966;DHT22;10144;50.874;4.762;2023-06-22T05:44:03;21.40;99.90
19966;DHT22;10144;50.874;4.762;2023-06-22T05:46:30;21.50;99.90
19966;DHT22;10144;50.874;4.762;2023-06-22T05:48:56;21.40;99.90
19966;DHT22;10144;50.874;4.762;2023-06-22T05:51:23;21.30;99.90
19966;DHT22;10144;50.874;4.762;2023-06-22T05:53:48;21.30;99.90
19966;DHT22;10144;50.874;4.762;2023-06-22T05:56:18;21.20;99.90
19966;DHT22;10144;50.874;4.762;2023-06-22T05:58:45;21.20;99.90
19966;DHT22;10144;50.874;4.762;2023-06-22T06:01:11;21.10;99.90
19966;DHT22;10144;50.874;4.762;2023-06-22T06:03:37;21.20;99.90
19966;DHT22;10144;50.874;4.762;2023-06-22T06:06:07;21.20;99.90
19966;DHT22;10144;50.874;4.762;2023-06-22T06:08:33;21.10;99.90
19966;DHT22;10144;50.874;4.762;2023-06-22T06:10:59;21.20;99.90
19966;DHT22;10144;50.874;4.762;2023-06-22T06:13:25;21.20;99.90
19966;DHT22;10144;50.874;4.762;2023-06-22T06:15:51;21.20;99.90
19966;DHT22;10144;50.874;4.762;2023-06-22T06:18:17;21.20;99.90
19966;DHT22;10144;50.874;4.762;2023-06-22T06:20:44;21.30;99.90
19966;DHT22;10144;50.874;4.762;2023-06-22T06:23:12;21.30;99.90
19966;DHT22;10144;50.874;4.762;2023-06-22T06:25:37;21.30;99.90
19966;DHT22;10144;50.874;4.762;2023-06-22T06:28:04;21.30;99.90
19966;DHT22;10144;50.874;4.762;2023-06-22T06:30:30;21.20;99.90
19966;DHT22;10144;50.874;4.762;2023-06-22T06:32:57;21.20;99.90
19966;DHT22;10144;50.874;4.762;2023-06-22T06:35:22;21.30;99.90
19966;DHT22;10144;50.874;4.762;2023-06-22T06:37:49;21.30;99.90
19966;DHT22;10144;50.874;4.762;2023-06-22T06:40:16;21.30;99.90
19966;DHT22;10144;50.874;4.762;2023-06-22T06:42:44;21.30;99.90
19966;DHT22;10144;50.874;4.762;2023-06-22T06:45:23;21.40;99.90
19966;DHT22;10144;50.874;4.762;2023-06-22T06:48:09;21.40;99.90
19966;DHT22;10144;50.874;4.762;2023-06-22T06:50:41;21.50;99.90
19966;DHT22;10144;50.874;4.762;2023-06-22T06:53:09;21.50;99.90
19966;DHT22;10144;50.874;4.762;2023-06-22T06:55:36;21.40;99.90
19966;DHT22;10144;50.874;4.762;2023-06-22T06:58:02;21.60;99.90
19966;DHT22;10144;50.874;4.762;2023-06-22T07:00:32;21.60;99.90
19966;DHT22;10144;50.874;4.762;2023-06-22T07:02:58;21.80;99.90
19966;DHT22;10144;50.874;4.762;2023-06-22T07:05:24;21.90;99.90
19966;DHT22;10144;50.874;4.762;2023-06-22T07:07:50;22.00;99.90
19966;DHT22;10144;50.874;4.762;2023-06-22T07:10:17;22.00;99.90
19966;DHT22;10144;50.874;4.762;2023-06-22T07:12:45;22.10;99.90
19966;DHT22;10144;50.874;4.762;2023-06-22T07:15:11;21.90;99.90
19966;DHT22;10144;50.874;4.762;2023-06-22T07:17:44;21.60;99.90
19966;DHT22;10144;50.874;4.762;2023-06-22T07:20:15;21.50;99.90
19966;DHT22;10144;50.874;4.762;2023-06-22T07:22:43;21.40;99.90
19966;DHT22;10144;50.874;4.762;2023-06-22T07:25:13;21.50;99.90
19966;DHT22;10144;50.874;4.762;2023-06-22T07:28:02;21.40;99.90
19966;DHT22;10144;50.874;4.762;2023-06-22T07:30:29;21.50;99.90
19966;DHT22;10144;50.874;4.762;2023-06-22T07:32:58;21.60;99.90
19966;DHT22;10144;50.874;4.762;2023-06-22T07:35:31;21.60;99.90
19966;DHT22;10144;50.874;4.762;2023-06-22T07:37:56;21.60;99.90
19966;DHT22;10144;50.874;4.762;2023-06-22T07:40:28;21.60;99.90
19966;DHT22;10144;50.874;4.762;2023-06-22T07:42:55;21.70;99.90
19966;DHT22;10144;50.874;4.762;2023-06-22T07:45:21;21.70;99.90
19966;DHT22;10144;50.874;4.762;2023-06-22T07:47:47;21.60;99.90
19966;DHT22;10144;50.874;4.762;2023-06-22T07:50:15;21.50;99.90
19966;DHT22;10144;50.874;4.762;2023-06-22T07:52:44;21.40;99.90
19966;DHT22;10144;50.874;4.762;2023-06-22T07:55:13;21.40;99.90
19966;DHT22;10144;50.874;4.762;2023-06-22T07:57:42;21.40;99.90
19966;DHT22;10144;50.874;4.762;2023-06-22T08:00:08;21.40;99.90
19966;DHT22;10144;50.874;4.762;2023-06-22T08:02:44;21.50;99.90
19966;DHT22;10144;50.874;4.762;2023-06-22T08:05:14;21.50;99.90
19966;DHT22;10144;50.874;4.762;2023-06-22T08:07:41;21.60;99.90
19966;DHT22;10144;50.874;4.762;2023-06-22T08:10:14;21.50;99.90
19966;DHT22;10144;50.874;4.762;2023-06-22T08:12:44;21.40;99.90
19966;DHT22;10144;50.874;4.762;2023-06-22T08:15:10;21.20;99.90
19966;DHT22;10144;50.874;4.762;2023-06-22T08:17:39;21.20;99.90
19966;DHT22;10144;50.874;4.762;2023-06-22T08:20:08;21.00;99.90
19966;DHT22;10144;50.874;4.762;2023-06-22T08:22:37;21.00;99.90
19966;DHT22;10144;50.874;4.762;2023-06-22T08:25:03;21.00;99.90
19966;DHT22;10144;50.874;4.762;2023-06-22T08:27:31;20.90;99.90
19966;DHT22;10144;50.874;4.762;2023-06-22T08:29:58;21.00;99.90
19966;DHT22;10144;50.874;4.762;2023-06-22T08:32:27;21.00;99.90
19966;DHT22;10144;50.874;4.762;2023-06-22T08:34:54;21.00;99.90
19966;DHT22;10144;50.874;4.762;2023-06-22T08:37:23;21.00;99.90
19966;DHT22;10144;50.874;4.762;2023-06-22T08:39:59;21.10;99.90
19966;DHT22;10144;50.874;4.762;2023-06-22T08:42:27;21.30;99.90
19966;DHT22;10144;50.874;4.762;2023-06-22T08:44:57;21.30;99.90
19966;DHT22;10144;50.874;4.762;2023-06-22T08:47:23;21.40;99.90
19966;DHT22;10144;50.874;4.762;2023-06-22T08:49:48;21.40;99.90
19966;DHT22;10144;50.874;4.762;2023-06-22T08:52:17;21.40;99.90
19966;DHT22;10144;50.874;4.762;2023-06-22T08:54:49;21.50;99.90
19966;DHT22;10144;50.874;4.762;2023-06-22T08:57:18;21.50;99.90
19966;DHT22;10144;50.874;4.762;2023-06-22T08:59:52;21.60;99.90
19966;DHT22;10144;50.874;4.762;2023-06-22T09:02:24;21.70;99.90
19966;DHT22;10144;50.874;4.762;2023-06-22T09:04:51;21.70;99.90
19966;DHT22;10144;50.874;4.762;2023-06-22T09:07:23;21.70;99.90
19966;DHT22;10144;50.874;4.762;2023-06-22T09:09:53;21.80;99.90
19966;DHT22;10144;50.874;4.762;2023-06-22T09:12:23;21.90;99.90
19966;DHT22;10144;50.874;4.762;2023-06-22T09:14:54;22.00;99.90
19966;DHT22;10144;50.874;4.762;2023-06-22T09:17:21;21.90;99.90
19966;DHT22;10144;50.874;4.762;2023-06-22T09:19:48;21.90;99.90
19966;DHT22;10144;50.874;4.762;2023-06-22T09:22:14;21.90;99.90
19966;DHT22;10144;50.874;4.762;2023-06-22T09:24:42;22.00;99.90
19966;DHT22;10144;50.874;4.762;2023-06-22T09:27:10;22.10;99.90
19966;DHT22;10144;50.874;4.762;2023-06-22T09:29:38;22.20;99.90
19966;DHT22;10144;50.874;4.762;2023-06-22T09:32:07;22.10;99.90
19966;DHT22;10144;50.874;4.762;2023-06-22T09:34:42;21.90;99.90
19966;DHT22;10144;50.874;4.762;2023-06-22T09:37:08;21.80;99.90
19966;DHT22;10144;50.874;4.762;2023-06-22T09:39:37;21.90;99.90
19966;DHT22;10144;50.874;4.762;2023-06-22T09:42:04;21.90;99.90
19966;DHT22;10144;50.874;4.762;2023-06-22T09:44:33;21.90;99.90
19966;DHT22;10144;50.874;4.762;2023-06-22T09:46:59;21.70;99.90
19966;DHT22;10144;50.874;4.762;2023-06-22T09:49:28;21.70;99.90
19966;DHT22;10144;50.874;4.762;2023-06-22T09:52:12;21.80;99.90
19966;DHT22;10144;50.874;4.762;2023-06-22T09:54:42;21.70;99.90
19966;DHT22;10144;50.874;4.762;2023-06-22T09:57:10;21.80;99.90
19966;DHT22;10144;50.874;4.762;2023-06-22T09:59:54;21.60;99.90
19966;DHT22;10144;50.874;4.762;2023-06-22T10:02:25;21.60;99.90
19966;DHT22;10144;50.874;4.762;2023-06-22T10:04:53;21.60;99.90
19966;DHT22;10144;50.874;4.762;2023-06-22T10:07:25;21.40;99.90
19966;DHT22;10144;50.874;4.762;2023-06-22T10:15:48;20.90;99.90
19966;DHT22;10144;50.874;4.762;2023-06-22T10:18:18;20.70;99.90
19966;DHT22;10144;50.874;4.762;2023-06-22T10:20:47;20.50;99.90
19966;DHT22;10144;50.874;4.762;2023-06-22T10:26:29;20.30;99.90
19966;DHT22;10144;50.874;4.762;2023-06-22T10:32:18;20.10;99.90
19966;DHT22;10144;50.874;4.762;2023-06-22T10:34:47;19.90;99.90
19966;DHT22;10144;50.874;4.762;2023-06-22T10:37:15;19.80;99.90
19966;DHT22;10144;50.874;4.762;2023-06-22T10:43:03;19.70;99.90
19966;DHT22;10144;50.874;4.762;2023-06-22T10:48:51;19.50;99.90
19966;DHT22;10144;50.874;4.762;2023-06-22T10:54:41;19.40;99.90
19966;DHT22;10144;50.874;4.762;2023-06-22T11:03:46;19.20;99.90
19966;DHT22;10144;50.874;4.762;2023-06-22T11:09:34;19.40;99.90
19966;DHT22;10144;50.874;4.762;2023-06-22T11:15:25;19.60;99.90
19966;DHT22;10144;50.874;4.762;2023-06-22T11:21:12;19.40;99.90
19966;DHT22;10144;50.874;4.762;2023-06-22T11:27:00;19.30;99.90
19966;DHT22;10144;50.874;4.762;2023-06-22T11:29:44;19.30;99.90
19966;DHT22;10144;50.874;4.762;2023-06-22T11:35:32;19.20;99.90
19966;DHT22;10144;50.874;4.762;2023-06-22T11:38:23;19.10;99.90
19966;DHT22;10144;50.874;4.762;2023-06-22T11:40:51;19.10;99.90
19966;DHT22;10144;50.874;4.762;2023-06-22T11:46:41;19.00;99.90
19966;DHT22;10144;50.874;4.762;2023-06-22T11:49:18;19.10;99.90
19966;DHT22;10144;50.874;4.762;2023-06-22T11:55:09;19.10;99.90
19966;DHT22;10144;50.874;4.762;2023-06-22T12:07:26;19.00;99.90
19966;DHT22;10144;50.874;4.762;2023-06-22T12:10:11;19.00;99.90
19966;DHT22;10144;50.874;4.762;2023-06-22T12:12:57;19.00;99.90
19966;DHT22;10144;50.874;4.762;2023-06-22T12:15:31;19.10;99.90
19966;DHT22;10144;50.874;4.762;2023-06-22T12:18:10;19.00;99.90
19966;DHT22;10144;50.874;4.762;2023-06-22T12:30:26;19.10;99.90
19966;DHT22;10144;50.874;4.762;2023-06-22T12:36:13;19.00;99.90
19966;DHT22;10144;50.874;4.762;2023-06-22T12:42:01;18.90;99.90
19966;DHT22;10144;50.874;4.762;2023-06-22T12:47:49;19.00;99.90
19966;DHT22;10144;50.874;4.762;2023-06-22T12:53:37;19.00;99.90
19966;DHT22;10144;50.874;4.762;2023-06-22T12:59:25;18.90;99.90
19966;DHT22;10144;50.874;4.762;2023-06-22T13:05:12;18.90;99.90
19966;DHT22;10144;50.874;4.762;2023-06-22T13:11:00;19.00;99.90
19966;DHT22;10144;50.874;4.762;2023-06-22T13:16:47;18.90;99.90
19966;DHT22;10144;50.874;4.762;2023-06-22T13:22:35;19.00;99.90
19966;DHT22;10144;50.874;4.762;2023-06-22T13:28:27;18.90;99.90
19966;DHT22;10144;50.874;4.762;2023-06-22T13:37:31;18.70;99.90
19966;DHT22;10144;50.874;4.762;2023-06-22T13:43:19;18.80;99.90
19966;DHT22;10144;50.874;4.762;2023-06-22T13:49:06;18.90;99.90
19966;DHT22;10144;50.874;4.762;2023-06-22T13:54:54;18.90;99.90
19966;DHT22;10144;50.874;4.762;2023-06-22T14:00:41;18.80;99.90
19966;DHT22;10144;50.874;4.762;2023-06-22T14:06:29;18.80;99.90
19966;DHT22;10144;50.874;4.762;2023-06-22T14:12:16;18.80;99.90
19966;DHT22;10144;50.874;4.762;2023-06-22T14:18:07;18.70;99.90
19966;DHT22;10144;50.874;4.762;2023-06-22T14:23:54;18.70;99.90
19966;DHT22;10144;50.874;4.762;2023-06-22T14:29:42;18.80;99.90
19966;DHT22;10144;50.874;4.762;2023-06-22T14:35:30;18.90;99.90
19966;DHT22;10144;50.874;4.762;2023-06-22T14:38:01;18.80;99.90
19966;DHT22;10144;50.874;4.762;2023-06-22T14:40:27;19.00;99.90
19966;DHT22;10144;50.874;4.762;2023-06-22T14:42:54;18.90;99.90
19966;DHT22;10144;50.874;4.762;2023-06-22T14:45:27;18.80;99.90
19966;DHT22;10144;50.874;4.762;2023-06-22T14:48:15;18.80;99.90
19966;DHT22;10144;50.874;4.762;2023-06-22T14:57:25;18.60;99.90
19966;DHT22;10144;50.874;4.762;2023-06-22T15:03:12;18.50;99.90
19966;DHT22;10144;50.874;4.762;2023-06-22T15:09:04;18.50;99.90
19966;DHT22;10144;50.874;4.762;2023-06-22T15:14:52;18.70;99.90
19966;DHT22;10144;50.874;4.762;2023-06-22T15:17:41;18.70;99.90
19966;DHT22;10144;50.874;4.762;2023-06-22T15:23:29;18.90;99.90
19966;DHT22;10144;50.874;4.762;2023-06-22T15:29:17;18.90;99.90
19966;DHT22;10144;50.874;4.762;2023-06-22T15:35:05;19.00;99.90
19966;DHT22;10144;50.874;4.762;2023-06-22T15:40:53;19.10;99.90
19966;DHT22;10144;50.874;4.762;2023-06-22T15:43:27;19.20;99.90
19966;DHT22;10144;50.874;4.762;2023-06-22T15:49:15;19.30;99.90
19966;DHT22;10144;50.874;4.762;2023-06-22T15:55:03;19.20;99.90
19966;DHT22;10144;50.874;4.762;2023-06-22T16:00:51;19.20;99.90
19966;DHT22;10144;50.874;4.762;2023-06-22T16:06:53;19.10;99.90
19966;DHT22;10144;50.874;4.762;2023-06-22T16:09:46;19.10;99.90
19966;DHT22;10144;50.874;4.762;2023-06-22T16:12:22;19.10;99.90
19966;DHT22;10144;50.874;4.762;2023-06-22T16:15:04;19.10;99.90
19966;DHT22;10144;50.874;4.762;2023-06-22T16:17:30;19.10;99.90
19966;DHT22;10144;50.874;4.762;2023-06-22T16:19:57;19.10;99.90
19966;DHT22;10144;50.874;4.762;2023-06-22T16:22:32;19.20;99.90
19966;DHT22;10144;50.874;4.762;2023-06-22T16:24:59;19.30;99.90
19966;DHT22;10144;50.874;4.762;2023-06-22T16:27:53;19.20;99.90
19966;DHT22;10144;50.874;4.762;2023-06-22T16:30:35;19.20;99.90
19966;DHT22;10144;50.874;4.762;2023-06-22T16:36:23;19.30;99.90
19966;DHT22;10144;50.874;4.762;2023-06-22T16:38:55;19.20;99.90
19966;DHT22;10144;50.874;4.762;2023-06-22T16:41:55;19.30;99.90
19966;DHT22;10144;50.874;4.762;2023-06-22T16:44:45;19.30;99.90
19966;DHT22;10144;50.874;4.762;2023-06-22T16:47:13;19.30;99.90
19966;DHT22;10144;50.874;4.762;2023-06-22T16:52:35;19.50;99.90
19966;DHT22;10144;50.874;4.762;2023-06-22T16:55:05;19.60;99.90
19966;DHT22;10144;50.874;4.762;2023-06-22T17:01:26;19.60;99.90
19966;DHT22;10144;50.874;4.762;2023-06-22T17:04:27;19.60;99.90
19966;DHT22;10144;50.874;4.762;2023-06-22T17:10:17;19.50;99.90
19966;DHT22;10144;50.874;4.762;2023-06-22T17:19:20;19.60;99.90
19966;DHT22;10144;50.874;4.762;2023-06-22T17:21:52;19.60;99.90
19966;DHT22;10144;50.874;4.762;2023-06-22T17:27:40;19.50;99.90
19966;DHT22;10144;50.874;4.762;2023-06-22T17:36:50;19.50;99.90
19966;DHT22;10144;50.874;4.762;2023-06-22T17:42:38;19.40;99.90
19966;DHT22;10144;50.874;4.762;2023-06-22T17:48:26;19.50;99.90
19966;DHT22;10144;50.874;4.762;2023-06-22T17:54:17;19.60;99.90
19966;DHT22;10144;50.874;4.762;2023-06-22T17:57:16;19.60;99.90
19966;DHT22;10144;50.874;4.762;2023-06-22T17:59:49;19.50;99.90
19966;DHT22;10144;50.874;4.762;2023-06-22T18:02:53;19.60;99.90
19966;DHT22;10144;50.874;4.762;2023-06-22T18:09:00;19.60;99.90
19966;DHT22;10144;50.874;4.762;2023-06-22T18:11:32;19.50;99.90
19966;DHT22;10144;50.874;4.762;2023-06-22T18:14:27;19.60;99.90
19966;DHT22;10144;50.874;4.762;2023-06-22T18:17:09;19.60;99.90
19966;DHT22;10144;50.874;4.762;2023-06-22T18:19:37;19.60;99.90
19966;DHT22;10144;50.874;4.762;2023-06-22T18:22:09;19.70;99.90
19966;DHT22;10144;50.874;4.762;2023-06-22T18:31:27;19.70;99.90
19966;DHT22;10144;50.874;4.762;2023-06-22T18:37:15;19.70;99.90
19966;DHT22;10144;50.874;4.762;2023-06-22T18:39:45;19.70;99.90
19966;DHT22;10144;50.874;4.762;2023-06-22T18:45:36;19.80;99.90
19966;DHT22;10144;50.874;4.762;2023-06-22T18:51:24;19.50;99.90
19966;DHT22;10144;50.874;4.762;2023-06-22T19:00:44;19.60;99.90
19966;DHT22;10144;50.874;4.762;2023-06-22T19:03:42;19.60;99.90
19966;DHT22;10144;50.874;4.762;2023-06-22T19:09:30;19.60;99.90
19966;DHT22;10144;50.874;4.762;2023-06-22T19:15:20;19.50;99.90
19966;DHT22;10144;50.874;4.762;2023-06-22T19:21:09;19.60;99.90
19966;DHT22;10144;50.874;4.762;2023-06-22T19:26:57;19.60;99.90
19966;DHT22;10144;50.874;4.762;2023-06-22T19:32:46;19.60;99.90
19966;DHT22;10144;50.874;4.762;2023-06-22T19:41:28;19.60;99.90
19966;DHT22;10144;50.874;4.762;2023-06-22T19:43:57;19.70;99.90
19966;DHT22;10144;50.874;4.762;2023-06-22T19:46:32;19.60;99.90
19966;DHT22;10144;50.874;4.762;2023-06-22T19:49:22;19.50;99.90
19966;DHT22;10144;50.874;4.762;2023-06-22T19:55:19;19.60;99.90
19966;DHT22;10144;50.874;4.762;2023-06-22T19:58:00;19.60;99.90
19966;DHT22;10144;50.874;4.762;2023-06-22T20:00:38;19.50;99.90
19966;DHT22;10144;50.874;4.762;2023-06-22T20:06:35;19.60;99.90
19966;DHT22;10144;50.874;4.762;2023-06-22T20:09:31;19.70;99.90
19966;DHT22;10144;50.874;4.762;2023-06-22T20:15:20;19.70;99.90
19966;DHT22;10144;50.874;4.762;2023-06-22T20:17:59;19.70;99.90
19966;DHT22;10144;50.874;4.762;2023-06-22T20:20:29;19.70;99.90
19966;DHT22;10144;50.874;4.762;2023-06-22T20:22:59;19.70;99.90
19966;DHT22;10144;50.874;4.762;2023-06-22T20:28:36;19.60;99.90
19966;DHT22;10144;50.874;4.762;2023-06-22T20:31:07;19.50;99.90
19966;DHT22;10144;50.874;4.762;2023-06-22T20:34:09;19.50;99.90
19966;DHT22;10144;50.874;4.762;2023-06-22T20:43:24;19.90;99.90
19966;DHT22;10144;50.874;4.762;2023-06-22T20:45:52;19.90;99.90
19966;DHT22;10144;50.874;4.762;2023-06-22T20:48:20;19.90;99.90